Time;durP1;ratioP1;P1;durP2;ratioP2;P2;SDS_P1;SDS_P2;PMS_P1;PMS_P2;Temp;Humidity;BMP_temperature;BMP_pressure;BME280_temperature;BME280_humidity;BME280_pressure;Samples;Min_cycle;Max_cycle;Signal;HPM_P1;HPM_P2
2023/10/20 00:01:21;;;;;;;78.05;42.40;;;;;;;9.59;100.00;98619.69;5589441;31;34972;-70
2023/10/20 00:04:24;;;;;;;76.28;41.30;;;;;;;9.58;100.00;98604.03;5575247;31;34361;-70
2023/10/20 00:07:27;;;;;;;76.25;41.42;;;;;;;9.64;100.00;98605.84;5575083;31;34363;-70
2023/10/20 00:10:36;;;;;;;74.87;40.33;;;;;;;9.67;100.00;98613.41;5575025;31;34404;-70
2023/10/20 00:13:40;;;;;;;68.97;40.12;;;;;;;9.72;100.00;98618.06;5589223;31;34179;-70
2023/10/20 00:16:43;;;;;;;65.22;40.22;;;;;;;9.73;100.00;98633.75;5588247;31;34326;-72
2023/10/20 00:19:47;;;;;;;69.35;40.15;;;;;;;9.70;100.00;98628.03;5575362;31;34439;-70
2023/10/20 00:22:50;;;;;;;81.05;42.90;;;;;;;9.74;100.00;98622.13;5588840;31;34866;-70
2023/10/20 00:25:52;;;;;;;69.30;40.28;;;;;;;9.85;100.00;98616.22;5588712;31;34326;-70
2023/10/20 00:28:55;;;;;;;83.15;41.83;;;;;;;9.89;100.00;98606.84;5588793;31;34995;-70
2023/10/20 00:31:58;;;;;;;66.15;40.40;;;;;;;9.91;100.00;98617.25;5588641;31;34295;-70
2023/10/20 00:35:05;;;;;;;64.50;39.63;;;;;;;9.88;100.00;98614.97;5588560;31;34311;-70
2023/10/20 00:38:08;;;;;;;63.85;39.60;;;;;;;9.77;100.00;98605.84;5588593;31;34265;-70
2023/10/20 00:41:13;;;;;;;64.55;39.83;;;;;;;9.71;100.00;98606.66;5588493;31;35143;-70
2023/10/20 00:44:16;;;;;;;64.35;39.20;;;;;;;9.70;100.00;98598.91;5588369;31;34308;-71
2023/10/20 00:47:20;;;;;;;70.97;40.33;;;;;;;9.74;100.00;98589.53;5588290;31;34356;-71
2023/10/20 00:50:23;;;;;;;64.37;38.67;;;;;;;9.75;100.00;98585.88;5574388;31;34252;-71
2023/10/20 00:53:29;;;;;;;71.60;42.28;;;;;;;9.81;100.00;98577.94;5574524;31;35211;-73
2023/10/20 00:56:32;;;;;;;66.90;40.08;;;;;;;9.72;100.00;98568.59;5588115;31;34209;-71
2023/10/20 00:59:35;;;;;;;68.35;39.38;;;;;;;9.67;100.00;98563.09;5588088;31;35755;-71
2023/10/20 01:02:38;;;;;;;64.97;38.92;;;;;;;9.57;100.00;98552.91;5588105;31;34324;-71
2023/10/20 01:05:42;;;;;;;68.37;39.67;;;;;;;9.54;100.00;98544.56;5588125;31;34919;-71
2023/10/20 01:08:44;;;;;;;73.68;41.42;;;;;;;9.52;100.00;98554.56;5574218;31;35025;-71
2023/10/20 01:11:47;;;;;;;72.93;39.83;;;;;;;9.60;100.00;98554.31;5561659;31;34970;-70
2023/10/20 01:14:50;;;;;;;72.78;39.85;;;;;;;9.70;100.00;98554.72;5588186;31;34417;-70
2023/10/20 01:17:54;;;;;;;73.10;39.97;;;;;;;9.69;100.00;98545.16;5587808;31;34915;-70
2023/10/20 01:20:57;;;;;;;64.07;38.10;;;;;;;9.68;100.00;98550.66;5573861;31;34259;-70
2023/10/20 01:24:01;;;;;;;71.78;40.17;;;;;;;9.76;100.00;98553.09;5587587;31;34415;-70
2023/10/20 01:27:04;;;;;;;64.80;39.08;;;;;;;9.68;100.00;98529.47;5587585;31;35223;-71
2023/10/20 01:30:10;;;;;;;74.95;42.45;;;;;;;9.61;100.00;98534.78;5589339;31;33632;-70
2023/10/20 01:33:14;;;;;;;61.80;38.78;;;;;;;9.55;100.00;98519.72;5590338;31;35088;-70
2023/10/20 01:36:17;;;;;;;73.22;42.78;;;;;;;9.61;100.00;98513.59;5590211;31;34384;-70
2023/10/20 01:39:19;;;;;;;71.65;41.42;;;;;;;9.60;100.00;98506.69;5590184;31;35055;-70
2023/10/20 01:42:22;;;;;;;76.82;41.30;;;;;;;9.65;100.00;98498.94;5590613;31;34332;-71
2023/10/20 01:45:25;;;;;;;75.60;41.88;;;;;;;9.82;100.00;98496.66;5590261;31;34335;-70
2023/10/20 01:48:30;;;;;;;76.07;41.65;;;;;;;9.81;100.00;98485.25;5576257;31;34174;-70
2023/10/20 01:51:34;;;;;;;75.03;41.63;;;;;;;9.76;100.00;98494.84;5590116;31;34370;-70
2023/10/20 01:54:37;;;;;;;72.12;41.53;;;;;;;9.70;100.00;98483.22;5590084;31;34298;-71
2023/10/20 01:57:40;;;;;;;71.50;41.17;;;;;;;9.67;100.00;98475.72;5590027;31;34989;-71
2023/10/20 02:00:44;;;;;;;85.78;48.53;;;;;;;9.75;100.00;98487.91;5590148;31;34287;-71
2023/10/20 02:03:49;;;;;;;92.60;50.03;;;;;;;9.71;100.00;98484.06;5589985;31;34260;-71
2023/10/20 02:06:52;;;;;;;84.20;48.35;;;;;;;9.66;100.00;98465.31;5590086;31;35014;-71
2023/10/20 02:09:55;;;;;;;94.32;49.53;;;;;;;9.62;100.00;98467.59;5589919;31;34264;-70
2023/10/20 02:12:58;;;;;;;80.85;45.03;;;;;;;9.60;100.00;98459.03;5590279;31;34787;-71
2023/10/20 02:16:02;;;;;;;86.47;45.63;;;;;;;9.62;100.00;98472.06;5589920;31;34160;-71
2023/10/20 02:19:05;;;;;;;79.28;43.38;;;;;;;9.54;100.00;98463.31;5589885;31;34230;-71
2023/10/20 02:22:07;;;;;;;76.32;40.80;;;;;;;9.56;100.00;98457.81;5590130;31;34534;-71
2023/10/20 02:25:10;;;;;;;72.55;41.47;;;;;;;9.57;100.00;98457.62;5589750;31;35289;-71
2023/10/20 02:28:14;;;;;;;67.12;40.22;;;;;;;9.58;100.00;98455.78;5590110;31;34195;-71
2023/10/20 02:31:17;;;;;;;75.62;40.90;;;;;;;9.56;100.00;98457.81;5589631;31;34209;-71
2023/10/20 02:34:21;;;;;;;70.12;39.35;;;;;;;9.57;100.00;98454.16;5590098;31;34319;-71
2023/10/20 02:37:23;;;;;;;61.05;35.90;;;;;;;9.59;100.00;98454.75;5589661;31;34906;-71
2023/10/20 02:40:26;;;;;;;57.78;35.90;;;;;;;9.73;100.00;98452.91;5575704;31;35517;-71
2023/10/20 02:43:30;;;;;;;60.60;36.60;;;;;;;9.68;100.00;98456.16;5589877;31;34879;-71
2023/10/20 02:46:33;;;;;;;69.57;38.22;;;;;;;9.66;100.00;98462.69;5589387;31;34331;-71
2023/10/20 02:49:36;;;;;;;65.68;37.55;;;;;;;9.69;100.00;98456.94;5589622;31;34415;-71
2023/10/20 02:52:39;;;;;;;65.60;38.05;;;;;;;9.72;100.00;98461.84;5589559;31;34282;-71
2023/10/20 02:55:43;;;;;;;59.78;37.17;;;;;;;9.69;100.00;98446.37;5576221;31;34352;-71
2023/10/20 02:58:47;;;;;;;63.13;37.25;;;;;;;9.73;100.00;98435.12;5589481;31;34321;-71
2023/10/20 03:01:50;;;;;;;62.30;36.70;;;;;;;9.78;100.00;98427.38;5589513;31;34300;-71
2023/10/20 03:04:54;;;;;;;70.32;38.17;;;;;;;9.79;100.00;98433.50;5589516;31;34886;-71
2023/10/20 03:07:58;;;;;;;66.32;38.60;;;;;;;9.86;100.00;98424.53;5589367;31;34302;-71
2023/10/20 03:11:02;;;;;;;64.30;37.63;;;;;;;9.85;100.00;98428.19;5589351;31;34306;-71
2023/10/20 03:14:06;;;;;;;68.05;38.67;;;;;;;9.90;100.00;98428.38;5589502;31;34295;-72
2023/10/20 03:17:09;;;;;;;70.00;38.70;;;;;;;9.89;100.00;98428.56;5589222;31;34966;-71
2023/10/20 03:20:17;;;;;;;64.10;38.63;;;;;;;9.83;100.00;98438.16;5575508;31;35250;-71
2023/10/20 03:23:21;;;;;;;66.53;40.38;;;;;;;9.80;100.00;98451.84;5576313;31;35787;-71
2023/10/20 03:26:23;;;;;;;66.28;39.08;;;;;;;9.78;100.00;98437.19;5589281;31;35119;-71
2023/10/20 03:29:27;;;;;;;67.60;39.05;;;;;;;9.83;100.00;98446.09;5589099;31;35204;-71
2023/10/20 03:32:32;;;;;;;67.28;39.53;;;;;;;9.83;100.00;98446.09;5589085;31;34277;-71
2023/10/20 03:35:36;;;;;;;70.37;38.67;;;;;;;9.83;100.00;98447.94;5589310;31;34355;-71
2023/10/20 03:38:39;;;;;;;64.25;37.35;;;;;;;9.89;100.00;98457.69;5589129;31;34236;-71
2023/10/20 03:41:42;;;;;;;74.65;40.10;;;;;;;9.86;100.00;98443.06;5589197;31;34463;-71
2023/10/20 03:44:47;;;;;;;72.82;39.20;;;;;;;9.88;100.00;98432.22;5589430;31;34381;-71
2023/10/20 03:47:51;;;;;;;70.95;37.60;;;;;;;9.87;100.00;98434.09;5589022;31;34321;-71
2023/10/20 03:50:54;;;;;;;68.20;39.78;;;;;;;9.87;100.00;98434.09;5588275;31;34291;-71
2023/10/20 03:53:57;;;;;;;72.35;40.38;;;;;;;9.93;100.00;98440.34;5589308;31;34241;-71
2023/10/20 03:57:00;;;;;;;73.68;42.70;;;;;;;9.92;100.00;98441.41;5589326;31;35792;-71
2023/10/20 04:00:15;;;;;;;74.07;41.60;;;;;;;9.91;100.00;98434.47;5575410;31;34299;-71
2023/10/20 04:03:18;;;;;;;69.90;40.38;;;;;;;9.90;100.00;98440.78;5575473;31;34561;-71
2023/10/20 04:06:22;;;;;;;72.07;41.13;;;;;;;9.91;100.00;98439.78;5575108;31;34844;-71
2023/10/20 04:09:25;;;;;;;69.28;41.42;;;;;;;9.91;100.00;98421.22;5588928;31;34194;-71
2023/10/20 04:12:28;;;;;;;71.78;42.75;;;;;;;9.94;100.00;98420.81;5588668;31;34941;-71
2023/10/20 04:15:36;;;;;;;74.45;41.70;;;;;;;9.99;100.00;98399.78;5575025;31;34402;-71
2023/10/20 04:18:42;;;;;;;84.22;43.60;;;;;;;10.00;100.00;98412.84;5589105;31;34332;-72
2023/10/20 04:21:45;;;;;;;71.40;39.97;;;;;;;9.99;100.00;98420.97;5588761;31;34478;-72
2023/10/20 04:24:48;;;;;;;66.45;39.15;;;;;;;9.96;100.00;98416.13;5588676;31;34305;-72
2023/10/20 04:28:14;;;;;;;73.47;40.72;;;;;;;9.95;100.00;98417.13;5588576;31;34412;-72
2023/10/20 04:51:18;;;;;;;69.72;38.45;;;;;;;9.91;100.00;98406.16;5588602;31;34382;-72
2023/10/20 04:54:34;;;;;;;68.70;37.80;;;;;;;9.90;100.00;98399.22;5588517;31;34899;-71
2023/10/20 05:00:59;;;;;;;61.47;36.83;;;;;;;9.87;100.00;98410.25;5587988;31;35137;-72
2023/10/20 05:04:13;;;;;;;66.37;37.67;;;;;;;9.90;100.00;98417.78;5589553;31;34394;-72
2023/10/20 05:07:18;;;;;;;66.10;38.53;;;;;;;9.84;100.00;98413.31;5576616;31;34312;-72
2023/10/20 05:10:21;;;;;;;65.80;37.53;;;;;;;9.84;100.00;98408.00;5590214;31;34254;-73
2023/10/20 05:13:24;;;;;;;67.90;39.83;;;;;;;9.88;100.00;98403.91;5576537;31;34508;-72
2023/10/20 05:16:28;;;;;;;64.90;38.67;;;;;;;9.93;100.00;98414.69;5590324;31;34945;-72
2023/10/20 05:19:35;;;;;;;82.05;40.15;;;;;;;9.95;100.00;98414.50;5590179;31;34505;-72
2023/10/20 05:22:40;;;;;;;71.00;37.88;;;;;;;9.96;100.00;98414.28;5590549;31;32754;-72
2023/10/20 05:25:49;;;;;;;65.50;37.50;;;;;;;10.01;100.00;98419.75;5590151;31;34294;-73
2023/10/20 05:28:54;;;;;;;63.40;37.77;;;;;;;10.01;100.00;98397.75;5590263;31;34513;-73
2023/10/20 05:31:58;;;;;;;70.85;37.42;;;;;;;10.07;100.00;98406.69;5590039;31;35253;-72
2023/10/20 05:35:01;;;;;;;62.20;37.22;;;;;;;10.11;100.00;98402.59;5590071;31;34321;-73
2023/10/20 05:38:05;;;;;;;73.05;39.97;;;;;;;10.16;100.00;98403.62;5589955;31;35077;-72
2023/10/20 05:41:08;;;;;;;62.10;37.13;;;;;;;10.22;100.00;98416.00;5576140;31;34394;-73
2023/10/20 05:44:12;;;;;;;73.68;40.85;;;;;;;10.27;100.00;98418.81;5590007;31;34982;-73
2023/10/20 05:47:15;;;;;;;75.10;40.97;;;;;;;10.33;100.00;98412.66;5589656;31;34423;-72
2023/10/20 05:50:18;;;;;;;68.28;39.70;;;;;;;10.40;100.00;98413.44;5575951;31;34594;-73
2023/10/20 05:53:22;;;;;;;63.42;38.10;;;;;;;10.50;100.00;98426.22;5575379;31;34283;-73
2023/10/20 05:56:25;;;;;;;69.90;38.70;;;;;;;10.57;100.00;98432.28;5589656;31;35267;-73
2023/10/20 05:59:28;;;;;;;63.55;38.20;;;;;;;10.65;100.00;98426.69;5589579;31;35143;-72
2023/10/20 06:02:32;;;;;;;68.25;36.33;;;;;;;10.76;100.00;98422.53;5589636;31;34344;-72
2023/10/20 06:05:35;;;;;;;69.70;36.55;;;;;;;10.84;100.00;98423.06;5588940;31;34363;-72
2023/10/20 06:08:39;;;;;;;63.58;36.28;;;;;;;10.91;100.00;98433.66;5588500;31;34440;-72
2023/10/20 06:11:42;;;;;;;64.05;35.08;;;;;;;10.96;100.00;98430.34;5589387;31;34460;-72
2023/10/20 06:14:46;;;;;;;63.55;35.35;;;;;;;11.05;100.00;98421.88;5589423;31;34487;-72
2023/10/20 06:17:51;;;;;;;60.63;35.92;;;;;;;11.11;100.00;98423.66;5589231;31;34585;-73
2023/10/20 06:20:54;;;;;;;89.82;39.60;;;;;;;11.15;100.00;98432.00;5589619;31;32861;-73
2023/10/20 06:23:57;;;;;;;74.95;38.08;;;;;;;11.15;100.00;98435.47;5589708;31;35100;-72
2023/10/20 06:27:03;;;;;;;78.12;38.20;;;;;;;11.23;100.00;98424.56;5575932;31;35126;-72
2023/10/20 06:30:14;;;;;;;71.57;37.30;;;;;;;11.32;100.00;98430.41;5575846;31;34989;-73
2023/10/20 06:33:17;;;;;;;77.50;35.10;;;;;;;11.38;100.00;98426.84;5589491;31;34170;-73
2023/10/20 06:36:25;;;;;;;70.57;34.75;;;;;;;11.47;100.00;98420.25;5589374;31;35169;-73
2023/10/20 06:39:30;;;;;;;56.58;33.80;;;;;;;11.58;100.00;98414.19;5589400;31;34450;-72
2023/10/20 06:42:34;;;;;;;59.83;32.13;;;;;;;11.73;100.00;98419.16;5589370;31;34280;-73
2023/10/20 06:45:36;;;;;;;58.83;31.98;;;;;;;11.86;100.00;98418.97;5589198;31;34336;-73
2023/10/20 06:48:39;;;;;;;57.80;30.27;;;;;;;11.97;100.00;98418.22;5589106;31;34331;-72
2023/10/20 06:51:42;;;;;;;63.85;34.53;;;;;;;12.08;100.00;98411.34;5589279;31;35025;-73
2023/10/20 06:54:48;;;;;;;63.50;32.00;;;;;;;12.13;100.00;98414.97;5588858;31;34465;-73
2023/10/20 06:58:11;;;;;;;66.00;32.08;;;;;;;12.21;100.00;98416.47;5589340;31;33854;-73
2023/10/20 07:01:14;;;;;;;53.15;28.55;;;;;;;12.37;100.00;98425.66;5589012;31;34250;-73
2023/10/20 07:04:17;;;;;;;54.28;28.77;;;;;;;12.46;100.00;98417.13;5575819;31;34337;-72
2023/10/20 07:07:20;;;;;;;50.08;28.12;;;;;;;12.55;100.00;98409.63;5589133;31;35115;-73
2023/10/20 07:10:23;;;;;;;55.25;28.92;;;;;;;12.58;100.00;98411.88;5589075;31;35162;-73
2023/10/20 07:13:26;;;;;;;45.90;28.20;;;;;;;12.68;100.00;98401.47;5589050;31;34483;-72
2023/10/20 07:16:29;;;;;;;46.13;27.52;;;;;;;12.71;100.00;98406.31;5588909;31;34305;-73
2023/10/20 07:19:33;;;;;;;44.97;26.10;;;;;;;12.73;100.00;98409.56;5588750;31;34468;-73
2023/10/20 07:22:36;;;;;;;48.22;26.98;;;;;;;12.71;100.00;98408.97;5589186;31;35130;-72
2023/10/20 07:25:39;;;;;;;50.20;27.27;;;;;;;12.77;100.00;98402.75;5588707;31;34225;-72
2023/10/20 07:28:42;;;;;;;51.88;28.08;;;;;;;12.81;100.00;98413.75;5588409;31;34180;-73
2023/10/20 07:31:47;;;;;;;44.97;25.80;;;;;;;12.87;100.00;98418.16;5575417;31;34883;-73
2023/10/20 07:34:50;;;;;;;45.55;26.25;;;;;;;12.95;100.00;98426.59;5589021;31;34402;-74
2023/10/20 07:37:54;;;;;;;46.37;25.55;;;;;;;13.26;100.00;98428.16;5588419;31;34258;-74
2023/10/20 07:41:09;;;;;;;43.28;24.37;;;;;;;13.61;100.00;98428.09;5589011;31;34914;-74
2023/10/20 07:47:12;;;;;;;;;;;;;;;14.04;100.00;98402.84;5598191;31;198248;-73
2023/10/20 07:50:17;;;;;;;44.80;22.48;;;;;;;14.02;100.00;98413.75;5590234;31;34650;-74
2023/10/20 07:53:20;;;;;;;51.45;24.20;;;;;;;14.10;100.00;98424.00;5603709;31;33881;-74
2023/10/20 07:56:25;;;;;;;55.50;25.27;;;;;;;14.06;100.00;98414.88;5602698;31;34759;-74
2023/10/20 07:59:28;;;;;;;48.42;23.17;;;;;;;14.14;100.00;98406.47;5603531;31;34430;-74
2023/10/20 08:02:32;;;;;;;46.42;22.62;;;;;;;14.35;100.00;98407.66;5602874;31;34012;-74
2023/10/20 08:05:35;;;;;;;54.17;22.90;;;;;;;14.46;100.00;98406.84;5603011;31;33881;-74
2023/10/20 08:08:39;;;;;;;46.90;22.65;;;;;;;14.55;100.00;98400.06;5603179;31;34486;-74
2023/10/20 08:11:42;;;;;;;41.58;21.25;;;;;;;14.71;100.00;98404.59;5602805;31;34613;-74
2023/10/20 08:14:45;;;;;;;43.10;21.85;;;;;;;14.88;100.00;98404.59;5603628;31;33873;-74
2023/10/20 08:17:51;;;;;;;51.03;21.95;;;;;;;14.95;100.00;98391.91;5603474;31;34623;-74
2023/10/20 08:21:05;;;;;;;47.42;21.23;;;;;;;15.13;100.00;98383.63;5603433;31;34967;-72
2023/10/20 08:24:10;;;;;;;47.28;22.20;;;;;;;15.39;100.00;98382.09;5602747;31;33930;-75
2023/10/20 08:27:14;;;;;;;45.53;21.27;;;;;;;15.56;100.00;98382.88;5603227;31;33890;-74
2023/10/20 08:30:20;;;;;;;46.37;21.15;;;;;;;15.68;100.00;98388.13;5603390;31;34070;-73
2023/10/20 08:33:23;;;;;;;42.20;20.42;;;;;;;15.77;100.00;98375.94;5603327;31;33925;-73
2023/10/20 08:36:26;;;;;;;40.60;20.05;;;;;;;15.90;100.00;98380.06;5603606;31;34982;-72
2023/10/20 08:39:29;;;;;;;49.80;20.27;;;;;;;16.16;100.00;98389.19;5603266;31;33926;-72
2023/10/20 08:42:32;;;;;;;22.65;11.27;;;;;;;16.46;100.00;98382.25;5603234;31;34455;-72
2023/10/20 08:45:35;;;;;;;26.50;12.32;;;;;;;16.63;100.00;98379.47;5602821;31;33888;-72
2023/10/20 08:48:48;;;;;;;24.45;11.43;;;;;;;16.99;100.00;98377.91;5602987;31;33912;-72
2023/10/20 08:51:51;;;;;;;26.40;9.15;;;;;;;17.18;100.00;98379.09;5602982;31;34094;-72
2023/10/20 08:54:55;;;;;;;22.85;8.15;;;;;;;17.38;100.00;98387.22;5602229;31;34902;-72
2023/10/20 08:57:57;;;;;;;25.23;7.87;;;;;;;17.26;100.00;98380.47;5593185;31;33577;-73
2023/10/20 09:01:01;;;;;;;23.58;7.10;;;;;;;17.23;100.00;98370.28;5589566;31;33937;-74
2023/10/20 09:04:04;;;;;;;25.48;7.00;;;;;;;17.37;100.00;98372.22;5590252;31;34006;-73
2023/10/20 09:07:14;;;;;;;21.70;7.15;;;;;;;17.35;100.00;98373.53;5589439;31;33953;-72
2023/10/20 09:10:17;;;;;;;20.17;7.22;;;;;;;17.34;100.00;98371.91;5590041;31;33912;-72
2023/10/20 09:13:23;;;;;;;27.15;7.35;;;;;;;17.39;100.00;98372.75;5590252;31;34707;-72
2023/10/20 09:16:26;;;;;;;24.75;7.97;;;;;;;17.44;100.00;98371.16;5589636;31;34540;-73
2023/10/20 09:19:31;;;;;;;23.80;8.07;;;;;;;17.58;100.00;98383.03;5590210;31;33967;-73
2023/10/20 09:22:36;;;;;;;36.83;8.15;;;;;;;17.71;100.00;98377.25;5590218;31;33518;-72
2023/10/20 09:25:39;;;;;;;25.98;7.65;;;;;;;17.95;100.00;98367.66;5590121;31;34624;-72
2023/10/20 09:28:48;;;;;;;33.35;8.10;;;;;;;18.04;100.00;98358.03;5589785;31;33975;-71
2023/10/20 09:31:51;;;;;;;27.60;8.10;;;;;;;18.25;100.00;98364.22;5590057;31;33906;-71
2023/10/20 09:34:55;;;;;;;34.10;8.40;;;;;;;18.51;100.00;98365.88;5590676;31;34198;-72
2023/10/20 09:38:06;;;;;;;38.95;7.95;;;;;;;18.88;100.00;98356.78;5589098;31;34169;-71
2023/10/20 09:41:13;;;;;;;32.25;8.00;;;;;;;19.12;100.00;98357.81;5589575;31;34004;-71
2023/10/20 09:44:40;;;;;;;34.10;8.00;;;;;;;19.24;100.00;98342.16;5589405;31;33901;-72
2023/10/20 09:47:45;;;;;;;30.37;7.97;;;;;;;19.28;100.00;98348.59;5589853;31;34948;-71
2023/10/20 09:50:55;;;;;;;24.52;7.22;;;;;;;19.35;100.00;98340.25;5588690;31;34624;-73
2023/10/20 09:54:04;;;;;;;31.48;7.50;;;;;;;19.34;100.00;98336.75;5589783;31;34273;-73
2023/10/20 09:57:08;;;;;;;37.88;7.28;;;;;;;19.81;100.00;98338.22;5589394;31;33838;-72
2023/10/20 10:00:12;;;;;;;27.50;7.07;;;;;;;20.33;100.00;98338.44;5591319;31;34624;-71
2023/10/20 10:03:15;;;;;;;29.27;6.78;;;;;;;20.41;100.00;98328.16;5588952;31;33946;-70
2023/10/20 10:06:19;;;;;;;30.05;6.53;;;;;;;20.46;100.00;98337.03;5589515;31;34050;-71
2023/10/20 10:09:36;;;;;;;28.95;6.70;;;;;;;20.46;100.00;98333.53;5588356;31;33997;-72
2023/10/20 10:12:57;;;;;;;25.45;5.72;;;;;;;20.62;100.00;98325.00;5589925;31;34020;-71
2023/10/20 10:16:12;;;;;;;20.90;5.97;;;;;;;20.47;100.00;98321.66;5592203;31;34382;-71
2023/10/20 10:19:17;;;;;;;22.65;5.97;;;;;;;20.14;100.00;98291.69;5589106;31;34126;-71
2023/10/20 10:22:30;;;;;;;25.37;6.03;;;;;;;20.10;100.00;98293.34;5589719;31;33876;-71
2023/10/20 10:25:37;;;;;;;24.25;5.68;;;;;;;20.33;100.00;98308.03;5589197;31;33895;-71
2023/10/20 10:28:48;;;;;;;20.58;5.35;;;;;;;20.43;100.00;98315.25;5589158;31;33836;-72
2023/10/20 10:31:51;;;;;;;18.70;5.18;;;;;;;20.51;100.00;98333.47;5589266;31;33888;-70
2023/10/20 10:35:10;;;;;;;20.35;5.25;;;;;;;20.59;100.00;98322.09;5589257;31;33887;-71
2023/10/20 10:38:22;;;;;;;25.37;5.85;;;;;;;20.89;100.00;98323.72;5589077;31;34632;-72
2023/10/20 10:41:27;;;;;;;26.25;6.07;;;;;;;21.14;100.00;98323.50;5589068;31;34001;-72
2023/10/20 10:44:37;;;;;;;19.75;5.10;;;;;;;21.15;100.00;98323.22;5588341;31;33968;-72
2023/10/20 10:47:42;;;;;;;22.75;5.50;;;;;;;21.20;100.00;98317.72;5588882;31;35409;-72
2023/10/20 10:50:46;;;;;;;22.73;5.50;;;;;;;21.31;100.00;98321.12;5588223;31;34512;-72
2023/10/20 10:53:52;;;;;;;23.00;5.12;;;;;;;21.26;100.00;98313.09;5589074;31;33913;-72
2023/10/20 10:56:56;;;;;;;21.27;5.20;;;;;;;21.42;100.00;98309.13;5588021;31;34193;-71
2023/10/20 11:00:00;;;;;;;19.10;5.25;;;;;;;21.60;100.00;98302.97;5588914;31;34674;-72
2023/10/20 11:03:05;;;;;;;23.62;5.75;;;;;;;21.89;100.00;98299.34;5575514;31;33950;-72
2023/10/20 11:06:09;;;;;;;26.00;5.95;;;;;;;22.33;100.00;98299.78;5588726;31;34947;-71
2023/10/20 11:09:19;;;;;;;20.98;5.10;;;;;;;22.88;100.00;98289.16;5587885;31;33876;-71
2023/10/20 11:12:22;;;;;;;25.35;5.18;;;;;;;22.85;100.00;98281.66;5588794;31;34611;-71
2023/10/20 11:15:33;;;;;;;25.02;5.07;;;;;;;22.81;100.00;98265.19;5588608;31;33990;-70
2023/10/20 11:18:36;;;;;;;18.90;4.68;;;;;;;22.78;100.00;98267.72;5587794;31;33987;-70
2023/10/20 11:21:48;;;;;;;21.92;5.22;;;;;;;22.84;100.00;98251.09;5587388;31;35447;-70
2023/10/20 11:24:53;;;;;;;28.38;5.32;;;;;;;23.11;100.00;98255.72;5587933;31;33443;-71
2023/10/20 11:27:56;;;;;;;22.70;4.90;;;;;;;24.07;95.38;98244.72;5588432;31;34592;-71
2023/10/20 11:31:00;;;;;;;22.60;4.37;;;;;;;24.22;87.22;98220.00;5588470;31;34626;-72
2023/10/20 11:34:03;;;;;;;24.35;4.55;;;;;;;25.74;74.19;98226.66;5588548;31;33916;-73
2023/10/20 11:37:07;;;;;;;37.13;4.78;;;;;;;28.58;63.92;98233.47;5588172;31;34492;-73
2023/10/20 11:40:13;;;;;;;26.23;4.65;;;;;;;30.12;53.37;98219.63;5588348;31;34767;-72
2023/10/20 11:43:16;;;;;;;24.27;4.50;;;;;;;31.40;48.80;98229.22;5588217;31;33928;-72
2023/10/20 11:46:19;;;;;;;40.58;4.57;;;;;;;28.47;55.14;98217.53;5587982;31;34002;-73
2023/10/20 11:49:24;;;;;;;25.17;4.57;;;;;;;27.89;58.70;98218.53;5587466;31;34835;-74
2023/10/20 11:52:27;;;;;;;25.00;4.20;;;;;;;27.61;59.44;98228.38;5588479;31;33848;-72
2023/10/20 11:55:30;;;;;;;26.52;4.28;;;;;;;27.16;59.22;98223.50;5587996;31;34590;-72
2023/10/20 11:58:33;;;;;;;25.70;4.78;;;;;;;27.17;62.26;98224.28;5587338;31;33956;-72
2023/10/20 12:01:36;;;;;;;29.25;4.57;;;;;;;26.36;68.40;98227.94;5588015;31;34682;-72
2023/10/20 12:04:39;;;;;;;24.10;4.00;;;;;;;26.13;70.29;98217.53;5587960;31;34987;-72
2023/10/20 12:07:42;;;;;;;21.08;4.20;;;;;;;25.70;70.53;98215.66;5587654;31;34041;-72
2023/10/20 12:10:46;;;;;;;24.55;4.53;;;;;;;25.39;71.75;98206.78;5587729;31;34821;-71
2023/10/20 12:13:49;;;;;;;21.25;4.37;;;;;;;25.23;73.42;98222.72;5587570;31;34879;-72
2023/10/20 12:16:52;;;;;;;31.52;5.10;;;;;;;25.01;73.60;98217.41;5587638;31;34534;-72
2023/10/20 12:19:55;;;;;;;26.27;4.50;;;;;;;25.04;74.31;98227.59;5587503;31;33915;-72
2023/10/20 12:22:59;;;;;;;20.88;4.47;;;;;;;25.05;71.96;98224.59;5587445;31;33886;-72
2023/10/20 12:26:03;;;;;;;30.85;4.85;;;;;;;24.79;77.45;98220.13;5586831;31;33856;-72
2023/10/20 12:29:06;;;;;;;25.95;4.25;;;;;;;24.49;82.43;98217.16;5586588;31;34630;-72
2023/10/20 12:32:12;;;;;;;30.23;4.65;;;;;;;24.27;79.38;98213.66;5588180;31;33864;-72
2023/10/20 12:35:17;;;;;;;32.80;4.70;;;;;;;24.23;83.03;98219.69;5590325;31;33902;-72
2023/10/20 12:38:20;;;;;;;26.55;4.68;;;;;;;24.14;86.23;98212.59;5589961;31;34577;-71
2023/10/20 12:41:23;;;;;;;31.02;4.62;;;;;;;23.83;77.85;98207.91;5589651;31;34902;-72
2023/10/20 12:44:25;;;;;;;24.05;4.68;;;;;;;23.93;78.38;98206.84;5588989;31;34574;-71
2023/10/20 12:47:29;;;;;;;19.95;4.28;;;;;;;24.15;78.53;98201.44;5589921;31;33876;-72
2023/10/20 12:50:32;;;;;;;27.67;4.90;;;;;;;24.21;74.71;98199.41;5589955;31;33990;-71
2023/10/20 12:53:36;;;;;;;30.50;4.80;;;;;;;24.23;78.03;98187.19;5590130;31;33903;-72
2023/10/20 12:56:39;;;;;;;31.17;5.15;;;;;;;24.01;74.47;98181.72;5590080;31;33952;-71
2023/10/20 12:59:43;;;;;;;25.67;5.03;;;;;;;24.06;74.29;98175.41;5590189;31;33597;-71
2023/10/20 13:02:49;;;;;;;27.95;4.80;;;;;;;24.11;83.59;98167.94;5589909;31;33935;-72
2023/10/20 13:05:54;;;;;;;35.70;5.00;;;;;;;24.15;73.03;98168.94;5589591;31;34126;-73
2023/10/20 13:08:57;;;;;;;28.55;4.75;;;;;;;24.18;72.04;98167.53;5590009;31;35470;-71
2023/10/20 13:12:01;;;;;;;23.40;4.90;;;;;;;24.23;71.06;98157.37;5589869;31;33971;-70
2023/10/20 13:15:04;;;;;;;23.55;4.53;;;;;;;24.22;71.09;98149.53;5589486;31;34691;-70
2023/10/20 13:18:08;;;;;;;22.35;4.97;;;;;;;24.37;69.66;98151.06;5589247;31;34675;-73
2023/10/20 13:21:11;;;;;;;30.12;4.82;;;;;;;24.25;68.10;98154.38;5589161;31;34701;-72
2023/10/20 13:24:15;;;;;;;25.70;5.10;;;;;;;24.12;70.45;98158.69;5589225;31;34579;-72
2023/10/20 13:27:19;;;;;;;24.27;4.47;;;;;;;24.03;70.33;98151.63;5589089;31;34772;-73
2023/10/20 13:30:22;;;;;;;23.12;5.00;;;;;;;23.92;73.82;98148.37;5589198;31;34610;-72
2023/10/20 13:33:25;;;;;;;27.27;4.90;;;;;;;23.77;74.52;98156.87;5589508;31;33961;-72
2023/10/20 13:36:28;;;;;;;28.35;5.43;;;;;;;23.66;73.85;98166.34;5589102;31;34627;-71
2023/10/20 13:39:31;;;;;;;29.87;5.00;;;;;;;23.60;72.94;98165.66;5588179;31;34018;-71
2023/10/20 13:42:38;;;;;;;35.47;5.62;;;;;;;23.50;77.33;98173.22;5589109;31;33928;-71
2023/10/20 13:45:41;;;;;;;26.83;4.72;;;;;;;23.44;78.67;98171.69;5588785;31;34804;-71
2023/10/20 13:48:44;;;;;;;25.30;4.93;;;;;;;23.24;79.55;98162.91;5588423;31;33919;-71
2023/10/20 13:51:47;;;;;;;25.85;4.78;;;;;;;23.21;83.75;98154.63;5589281;31;34975;-72
2023/10/20 13:54:50;;;;;;;25.48;5.30;;;;;;;23.07;80.86;98165.47;5589319;31;34147;-72
2023/10/20 13:57:53;;;;;;;27.13;4.65;;;;;;;23.04;82.68;98159.88;5588464;31;33953;-71
2023/10/20 14:00:56;;;;;;;28.70;5.18;;;;;;;23.00;80.07;98165.06;5589004;31;33960;-71
2023/10/20 14:03:59;;;;;;;29.67;5.15;;;;;;;22.88;84.89;98162.06;5589103;31;33909;-72
2023/10/20 14:07:03;;;;;;;26.33;5.85;;;;;;;22.81;85.31;98164.37;5588890;31;33875;-71
2023/10/20 14:10:06;;;;;;;25.02;5.03;;;;;;;22.78;84.31;98163.09;5588089;31;34647;-72
2023/10/20 14:13:09;;;;;;;31.40;5.05;;;;;;;22.82;84.68;98166.78;5588950;31;33947;-71
2023/10/20 14:16:12;;;;;;;36.50;5.10;;;;;;;22.88;82.18;98164.78;5588623;31;34351;-71
2023/10/20 14:19:15;;;;;;;23.85;5.30;;;;;;;22.92;83.01;98154.97;5588829;31;33946;-71
2023/10/20 14:22:18;;;;;;;24.15;5.12;;;;;;;22.94;85.34;98160.88;5588672;31;33975;-71
2023/10/20 14:25:21;;;;;;;32.28;5.35;;;;;;;22.91;88.11;98159.56;5588820;31;34431;-71
2023/10/20 14:28:31;;;;;;;28.05;5.10;;;;;;;22.81;84.19;98154.34;5588729;31;34588;-73
2023/10/20 14:31:34;;;;;;;32.30;5.60;;;;;;;22.82;84.97;98155.16;5588673;31;34811;-71
2023/10/20 14:34:37;;;;;;;28.62;5.85;;;;;;;22.80;84.06;98154.69;5588307;31;34082;-71